Etusivu
METAR-TAF:

METAR-TAF

Lentoasemat :

Sandefjord, Norja

Leveyspiiri: 59-12N, Pituuspiiri: 010-16E, korkeus merenpinnasta: 8 m

Tämänhetkinen sää

Tämä raportti tehtiin 29 minuuttia sitten, kello 18.20 UTC
Tuuli 2 kn lännestä/luoteesta
Lämpötila 19°C
Kosteus 68%
Ilmanpaine 1018 hPa
Näkyvyys 10 km tai enemmän
ei pilviä alle 1500 m:ssä eikä cumulonimbus-pilviä

METAR: ENTO 221820Z 30002KT CAVOK 19/13 Q1018

Aika: 20:49 (18:49 UTC)

Sääennuste

Ennuste voimassa 22. päivästä klo 18 UTC - 23. päivään klo 18 UTC
Tuuli 5 kn eri suunnista
Näkyvyys 10 km tai enemmän
ei pilviä alle 1500 m:ssä eikä cumulonimbus-pilviä

TAF: ENTO 2218/2318 VRB05KT CAVOK

Säähavainnot ja -ennusteet yli 4000 lentoasemalta (METAR- ja TAF-raportit).

Käytössä olevat sääasemat on merkitty karttaan keltaisilla ja punaisilla pisteillä.

Aseta hiiri pisteen päälle nähdäksesi sääaseman nimen.

Klikkaa sitten nähdäksesi säähavainnot ja -ennusteet.

Kartan vaihtaminen: klikkaa mustalla rastilla varustettuja vihreitä pisteitä, niin voit zoomata sisään; viivalla varustettua vihreää pistettä, niin voit zoomata ulos tai vihreitä nuolia, niin pääset viereisille kartoille.


METAR-TAF: